Terminal Aerodrome Forecast
Issued by NWS

Home | Current Version | Previous Version | Text Only | Print | Product List | Glossary On
Versions: 1 2 3 4 5 6 7 8 9 10 11 12 13 14 15 16 17 18 19 20 21 22 23 24 25 26 27 28 29 30
000
FTUS41 KCAR 030500
TAFPQI
TAF
KPQI 030531Z 0306/0406 18007KT P6SM OVC010
     FM031000 26005KT P6SM OVC008
     FM031300 28006KT P6SM SCT015
     FM031700 31010KT P6SM FEW050
     FM032300 29006KT P6SM FEW250
      AMD LTD TO CLD VIS AND WIND=

USA.gov is the U.S. government's official web portal to all federal, state and local government web resources and services.